Time;durP1;ratioP1;P1;durP2;ratioP2;P2;SDS_P1;SDS_P2;PMS_P1;PMS_P2;Temp;Humidity;BMP_temperature;BMP_pressure;BME280_temperature;BME280_humidity;BME280_pressure;Samples;Min_cycle;Max_cycle;Signal;HPM_P1;HPM_P2
2023/09/25 00:01:00;;;;;;;6.78;2.22;;;;;;;12.58;91.42;101935.97;4942428;28;20027;-76
2023/09/25 00:03:25;;;;;;;4.45;1.55;;;;;;;12.53;91.46;101939.03;4952539;28;20068;-76
2023/09/25 00:05:51;;;;;;;4.97;1.73;;;;;;;12.53;91.54;101939.03;4937738;28;20046;-76
2023/09/25 00:08:16;;;;;;;3.25;1.45;;;;;;;12.56;91.62;101935.31;4940360;28;21767;-74
2023/09/25 00:10:42;;;;;;;4.32;1.55;;;;;;;12.46;91.89;101933.53;4957340;28;20064;-75
2023/09/25 00:13:07;;;;;;;5.65;1.85;;;;;;;12.41;92.51;101940.97;4924528;28;20089;-75
2023/09/25 00:15:34;;;;;;;3.22;1.77;;;;;;;12.54;91.59;101937.22;4936270;28;20118;-74
2023/09/25 00:17:59;;;;;;;3.65;1.73;;;;;;;12.55;91.41;101939.69;4957443;28;20039;-75
2023/09/25 00:20:26;;;;;;;6.65;2.10;;;;;;;12.62;91.04;101932.13;4926596;28;20051;-74
2023/09/25 00:22:51;;;;;;;4.15;1.60;;;;;;;12.67;90.87;101932.53;4954461;28;20035;-76
2023/09/25 00:25:20;;;;;;;5.03;1.38;;;;;;;12.53;91.53;101928.59;4958506;28;20049;-76
2023/09/25 00:27:46;;;;;;;2.65;1.40;;;;;;;12.53;91.81;101935.59;4954450;28;20050;-75
2023/09/25 00:30:12;;;;;;;9.15;1.70;;;;;;;12.53;91.52;101925.19;4938470;28;20031;-75
2023/09/25 00:32:37;;;;;;;4.43;1.60;;;;;;;12.50;92.01;101925.47;4960078;28;20063;-74
2023/09/25 00:35:09;;;;;;;3.55;1.42;;;;;;;12.54;91.60;101930.22;4942286;28;20087;-75
2023/09/25 00:37:35;;;;;;;5.63;1.75;;;;;;;12.34;92.49;101939.03;4939969;28;20042;-75
2023/09/25 00:40:11;;;;;;;6.55;1.77;;;;;;;12.36;92.63;101930.16;4937882;28;20043;-76
2023/09/25 00:42:39;;;;;;;3.35;1.50;;;;;;;12.26;93.07;101930.19;4954431;28;20043;-76
2023/09/25 00:45:05;;;;;;;3.80;1.77;;;;;;;12.30;93.01;101933.31;4926774;28;20498;-75
2023/09/25 00:47:32;;;;;;;3.65;1.55;;;;;;;12.29;93.26;101933.47;4938028;28;20032;-75
2023/09/25 00:49:57;;;;;;;2.85;1.50;;;;;;;12.17;93.44;101933.63;4937997;28;20050;-75
2023/09/25 00:52:24;;;;;;;4.45;1.50;;;;;;;12.24;93.26;101944.25;4954380;28;20031;-76
2023/09/25 00:54:49;;;;;;;4.95;1.40;;;;;;;12.20;93.60;101938.50;4940662;28;20138;-76
2023/09/25 00:57:15;;;;;;;3.78;1.67;;;;;;;12.16;93.75;101941.53;4934962;28;20494;-75
2023/09/25 00:59:41;;;;;;;3.40;1.10;;;;;;;12.14;93.86;101948.66;4925352;28;20031;-75
2023/09/25 01:02:06;;;;;;;3.15;1.42;;;;;;;12.27;93.23;101939.59;4939567;28;20054;-76
2023/09/25 01:04:32;;;;;;;3.88;1.45;;;;;;;12.26;92.83;101943.19;4951400;28;20039;-74
2023/09/25 01:06:58;;;;;;;5.57;1.75;;;;;;;12.18;93.08;101950.84;4953522;28;20067;-76
2023/09/25 01:09:23;;;;;;;11.13;2.20;;;;;;;12.12;93.86;101951.41;4956493;28;20438;-75
2023/09/25 01:11:49;;;;;;;6.93;1.65;;;;;;;12.07;93.88;101954.44;4921587;28;20023;-75
2023/09/25 01:14:14;;;;;;;2.95;1.30;;;;;;;12.13;93.68;101947.84;4952678;28;20426;-74
2023/09/25 01:16:41;;;;;;;5.15;1.80;;;;;;;12.04;94.17;101949.50;4952685;28;20038;-76
2023/09/25 01:19:07;;;;;;;6.63;1.30;;;;;;;12.11;93.55;101949.78;4937469;28;20037;-77
2023/09/25 01:21:36;;;;;;;3.90;1.48;;;;;;;12.09;94.03;101954.25;4936876;28;20409;-76
2023/09/25 01:24:02;;;;;;;3.90;1.88;;;;;;;12.11;93.58;101959.34;4955955;28;20107;-75
2023/09/25 01:26:28;;;;;;;6.18;1.60;;;;;;;12.08;94.06;101958.66;4935186;28;20450;-76
2023/09/25 01:28:54;;;;;;;5.45;1.90;;;;;;;11.96;94.45;101951.97;4957989;28;20038;-76
2023/09/25 01:31:19;;;;;;;5.65;1.60;;;;;;;11.95;94.66;101952.91;4940267;28;20035;-75
2023/09/25 01:33:44;;;;;;;5.82;1.95;;;;;;;12.00;94.65;101955.13;4933749;28;20039;-74
2023/09/25 01:36:11;;;;;;;2.90;1.50;;;;;;;12.02;94.34;101954.00;4950104;28;20062;-76
2023/09/25 01:38:37;;;;;;;4.47;1.60;;;;;;;11.94;94.43;101950.44;4951412;28;20490;-75
2023/09/25 01:41:03;;;;;;;3.92;1.83;;;;;;;11.92;94.62;101954.97;4954914;28;20074;-74
2023/09/25 01:43:29;;;;;;;4.72;1.80;;;;;;;11.84;95.30;101955.59;4960018;28;21428;-76
2023/09/25 01:45:54;;;;;;;4.15;1.75;;;;;;;11.82;95.40;101950.53;4959949;28;20059;-76
2023/09/25 01:48:20;;;;;;;2.78;1.60;;;;;;;11.79;95.85;101955.19;4952598;28;20039;-76
2023/09/25 01:50:45;;;;;;;8.18;2.28;;;;;;;11.86;95.65;101962.31;4958322;28;20090;-76
2023/09/25 01:53:11;;;;;;;5.05;2.20;;;;;;;11.79;95.71;101968.19;4923783;28;20097;-77
2023/09/25 01:55:39;;;;;;;2.17;1.33;;;;;;;11.69;96.67;101957.78;4940825;28;20070;-76
2023/09/25 01:58:06;;;;;;;3.13;1.45;;;;;;;11.63;97.47;101968.72;4933294;28;20039;-76
2023/09/25 02:00:33;;;;;;;2.35;1.40;;;;;;;11.60;97.93;101968.97;4940150;28;20030;-76
2023/09/25 02:02:58;;;;;;;5.63;1.30;;;;;;;11.57;98.16;101969.25;4953069;28;20403;-76
2023/09/25 02:05:24;;;;;;;2.92;1.30;;;;;;;11.55;98.44;101963.38;4956564;28;20078;-76
2023/09/25 02:07:51;;;;;;;4.47;1.70;;;;;;;11.48;98.57;101963.91;4924358;28;20081;-74
2023/09/25 02:10:16;;;;;;;6.28;1.60;;;;;;;11.44;98.60;101962.53;4936246;28;20050;-76
2023/09/25 02:12:42;;;;;;;4.15;1.48;;;;;;;11.38;98.80;101972.66;4943836;28;20043;-75
2023/09/25 02:15:08;;;;;;;4.00;1.65;;;;;;;11.31;98.91;101972.34;4941785;28;20047;-77
2023/09/25 02:17:34;;;;;;;3.70;1.52;;;;;;;11.33;98.46;101967.81;4934099;28;20532;-76
2023/09/25 02:20:16;;;;;;;3.05;1.88;;;;;;;11.28;98.31;101975.19;4949717;28;20039;-77
2023/09/25 02:22:43;;;;;;;4.63;1.77;;;;;;;11.24;98.51;101969.44;4937057;28;20070;-76
2023/09/25 02:25:08;;;;;;;4.30;2.20;;;;;;;11.17;98.72;101972.69;4937415;28;20037;-76
2023/09/25 02:27:34;;;;;;;3.60;2.08;;;;;;;11.12;99.08;101959.31;4938655;28;20036;-75
2023/09/25 02:30:00;;;;;;;7.88;1.85;;;;;;;11.05;99.78;101956.41;4934985;28;20035;-77
2023/09/25 02:32:25;;;;;;;4.55;1.95;;;;;;;10.89;100.00;101949.91;4949119;28;20039;-76
2023/09/25 02:34:51;;;;;;;5.30;1.77;;;;;;;10.81;100.00;101948.91;4957360;28;20061;-75
2023/09/25 02:37:17;;;;;;;4.15;2.13;;;;;;;10.98;100.00;101945.72;4936890;28;20510;-75
2023/09/25 02:39:42;;;;;;;5.45;2.28;;;;;;;10.93;100.00;101941.88;4935107;28;20049;-75
2023/09/25 02:42:09;;;;;;;4.05;2.50;;;;;;;10.99;100.00;101942.16;4933573;28;20101;-74
2023/09/25 02:44:34;;;;;;;5.18;2.22;;;;;;;10.99;100.00;101931.78;4951604;28;20035;-75
2023/09/25 02:47:00;;;;;;;5.72;2.25;;;;;;;11.05;100.00;101935.63;4951786;28;20058;-74
2023/09/25 02:49:25;;;;;;;3.22;1.95;;;;;;;10.96;100.00;101932.03;4937273;28;20234;-74
2023/09/25 02:51:51;;;;;;;8.02;2.20;;;;;;;10.93;100.00;101926.31;4952254;28;20391;-75
2023/09/25 02:54:16;;;;;;;4.50;2.22;;;;;;;10.93;100.00;101934.09;4934728;28;20866;-76
2023/09/25 02:56:42;;;;;;;5.70;2.53;;;;;;;10.93;100.00;101928.91;4939853;28;20035;-74
2023/09/25 02:59:07;;;;;;;5.03;1.77;;;;;;;10.94;100.00;101927.94;4952201;28;20489;-75
2023/09/25 03:01:34;;;;;;;7.25;2.25;;;;;;;11.00;100.00;101932.59;4932435;28;20047;-74
2023/09/25 03:04:00;;;;;;;4.32;2.10;;;;;;;10.95;100.00;101924.41;4951503;28;20035;-75
2023/09/25 03:06:25;;;;;;;3.30;2.15;;;;;;;10.91;100.00;101935.03;4931572;28;20047;-75
2023/09/25 03:08:51;;;;;;;4.15;2.00;;;;;;;10.97;100.00;101933.69;4935543;28;20043;-74
2023/09/25 03:11:17;;;;;;;7.70;2.63;;;;;;;10.97;100.00;101932.88;4953416;28;20050;-76
2023/09/25 03:13:42;;;;;;;4.03;2.35;;;;;;;10.97;100.00;101935.47;4950025;28;20063;-74
2023/09/25 03:16:14;;;;;;;6.40;2.30;;;;;;;10.99;100.00;101936.16;4950765;28;20416;-74
2023/09/25 03:18:41;;;;;;;5.35;2.05;;;;;;;11.01;100.00;101940.25;4945985;28;20031;-74
2023/09/25 03:21:14;;;;;;;3.28;2.00;;;;;;;10.99;100.00;101938.75;4954152;28;20042;-74
2023/09/25 03:23:43;;;;;;;3.95;2.33;;;;;;;11.05;100.00;101940.81;4946144;28;20050;-74
2023/09/25 03:26:15;;;;;;;7.53;2.22;;;;;;;11.00;100.00;101937.78;4931044;28;20079;-74
2023/09/25 03:28:42;;;;;;;3.08;1.80;;;;;;;11.16;99.96;101934.72;4949217;28;20457;-75
2023/09/25 03:31:08;;;;;;;4.22;2.38;;;;;;;11.14;99.64;101934.84;4954660;28;20035;-75
2023/09/25 03:33:33;;;;;;;7.53;2.47;;;;;;;11.07;99.88;101926.75;4883426;28;1068077;-77
2023/09/25 03:35:59;;;;;;;7.78;2.38;;;;;;;11.01;100.00;101935.06;4939288;28;20043;-75
2023/09/25 03:38:25;;;;;;;7.38;2.33;;;;;;;11.09;100.00;101939.59;4938372;28;20047;-75
2023/09/25 03:40:50;;;;;;;3.25;2.15;;;;;;;11.06;100.00;101951.06;4965051;28;20631;-74
2023/09/25 03:43:16;;;;;;;3.28;2.35;;;;;;;11.05;100.00;101943.41;4950877;28;20035;-75
2023/09/25 03:45:41;;;;;;;3.75;2.28;;;;;;;11.13;100.00;101938.38;4934535;28;20085;-74
2023/09/25 03:48:07;;;;;;;6.72;2.72;;;;;;;11.09;100.00;101942.19;4951312;28;20043;-74
2023/09/25 03:50:32;;;;;;;6.15;2.15;;;;;;;10.97;100.00;101936.28;4938063;28;20056;-74
2023/09/25 03:53:00;;;;;;;4.45;2.17;;;;;;;10.96;100.00;101941.59;4955907;28;20043;-75
2023/09/25 03:55:27;;;;;;;3.40;2.13;;;;;;;10.98;100.00;101948.31;4933109;28;20089;-75
2023/09/25 03:57:52;;;;;;;6.10;2.70;;;;;;;11.09;100.00;101947.38;4952869;28;20405;-76
2023/09/25 04:00:18;;;;;;;5.38;2.25;;;;;;;11.06;100.00;101938.09;4941653;28;20042;-75
2023/09/25 04:02:43;;;;;;;4.20;2.30;;;;;;;11.08;100.00;101946.56;4957892;28;20038;-74
2023/09/25 04:05:10;;;;;;;5.32;2.08;;;;;;;11.07;100.00;101947.50;4957100;28;20035;-74
2023/09/25 04:07:35;;;;;;;4.45;2.35;;;;;;;11.04;100.00;101942.59;4951960;28;20046;-75
2023/09/25 04:10:02;;;;;;;4.63;2.10;;;;;;;10.95;100.00;101948.56;4942315;28;20043;-75
2023/09/25 04:12:27;;;;;;;5.22;2.58;;;;;;;11.00;100.00;101949.00;4953447;28;20038;-76
2023/09/25 04:14:53;;;;;;;3.42;2.03;;;;;;;10.94;100.00;101944.31;4946805;28;20505;-75
2023/09/25 04:17:20;;;;;;;4.45;2.35;;;;;;;11.00;100.00;101949.00;4936482;28;20051;-74
2023/09/25 04:19:49;;;;;;;6.72;2.40;;;;;;;10.99;100.00;101947.34;4966812;28;20042;-74
2023/09/25 04:22:14;;;;;;;3.70;1.98;;;;;;;10.97;100.00;101943.25;4952069;28;20039;-75
2023/09/25 04:24:40;;;;;;;4.57;2.38;;;;;;;10.97;100.00;101945.84;4946351;28;20325;-74
2023/09/25 04:27:05;;;;;;;5.30;1.90;;;;;;;11.01;99.97;101940.25;4961540;28;20035;-73
2023/09/25 04:29:31;;;;;;;8.95;2.03;;;;;;;11.03;99.46;101942.72;4961664;28;20042;-75
2023/09/25 04:31:57;;;;;;;4.45;2.10;;;;;;;11.06;99.83;101943.28;4954928;28;20105;-75
2023/09/25 04:34:22;;;;;;;3.40;2.22;;;;;;;11.14;99.17;101944.41;4939296;28;20036;-74
2023/09/25 04:36:48;;;;;;;5.13;2.17;;;;;;;11.04;99.49;101940.00;4942326;28;20037;-75
2023/09/25 04:39:16;;;;;;;3.58;1.90;;;;;;;10.95;100.00;101942.56;4953212;28;20067;-76
2023/09/25 04:41:45;;;;;;;5.03;2.20;;;;;;;10.95;100.00;101952.94;4939805;28;20054;-75
2023/09/25 04:44:10;;;;;;;4.07;2.17;;;;;;;10.87;100.00;101951.81;4949663;28;20043;-74
2023/09/25 04:46:37;;;;;;;3.83;1.95;;;;;;;10.96;100.00;101958.00;4956874;28;20033;-74
2023/09/25 04:49:06;;;;;;;3.50;2.10;;;;;;;10.95;100.00;101951.16;4939011;28;20149;-74
2023/09/25 04:51:32;;;;;;;7.32;2.03;;;;;;;10.98;99.76;101950.91;4959437;28;20544;-75
2023/09/25 04:53:59;;;;;;;5.22;2.33;;;;;;;10.96;99.50;101944.19;4941757;28;20046;-75
2023/09/25 04:56:27;;;;;;;5.13;2.08;;;;;;;11.01;99.30;101948.03;4944622;28;20043;-75
2023/09/25 04:58:52;;;;;;;5.32;2.20;;;;;;;10.99;99.82;101949.13;4925755;28;20399;-75
2023/09/25 05:01:18;;;;;;;7.55;2.40;;;;;;;11.05;99.10;101953.81;4953862;28;20035;-74
2023/09/25 05:03:43;;;;;;;4.93;2.30;;;;;;;10.99;99.12;101949.13;4933746;28;20417;-74
2023/09/25 05:06:11;;;;;;;5.38;2.38;;;;;;;11.01;99.19;101955.00;4942152;28;20035;-74
2023/09/25 05:08:38;;;;;;;3.08;2.10;;;;;;;10.99;99.03;101952.53;4956131;28;20047;-74
2023/09/25 05:11:05;;;;;;;5.45;2.70;;;;;;;11.02;98.93;101957.50;4951702;28;20117;-74
2023/09/25 05:13:32;;;;;;;5.10;2.22;;;;;;;11.00;99.26;101958.56;4951023;28;20101;-76
2023/09/25 05:15:57;;;;;;;4.35;2.20;;;;;;;11.05;98.89;101966.78;4935748;28;20035;-76
2023/09/25 05:18:23;;;;;;;5.05;2.28;;;;;;;11.06;98.43;101965.84;4958881;28;20039;-74
2023/09/25 05:20:48;;;;;;;3.28;2.15;;;;;;;11.01;98.83;101953.22;4942455;28;20042;-76
2023/09/25 05:23:14;;;;;;;6.45;2.67;;;;;;;11.08;98.63;101954.34;4938484;28;20039;-74
2023/09/25 05:25:39;;;;;;;3.85;2.55;;;;;;;11.01;98.73;101962.81;4957431;28;20039;-75
2023/09/25 05:28:05;;;;;;;4.22;1.65;;;;;;;10.98;98.59;101957.88;4958656;28;20031;-74
2023/09/25 05:30:31;;;;;;;5.57;2.15;;;;;;;11.02;98.59;101962.69;4949391;28;20090;-74
2023/09/25 05:32:56;;;;;;;5.95;2.15;;;;;;;11.01;99.01;101953.22;4935610;28;20043;-75
2023/09/25 05:35:22;;;;;;;6.40;2.42;;;;;;;11.02;98.59;101952.28;4952232;28;20114;-75
2023/09/25 05:37:48;;;;;;;6.28;2.35;;;;;;;11.01;98.65;101955.84;4954829;28;20039;-75
2023/09/25 05:40:15;;;;;;;5.53;2.15;;;;;;;11.05;98.39;101961.59;4950420;28;20040;-77
2023/09/25 05:42:43;;;;;;;7.65;2.10;;;;;;;11.08;98.08;101961.34;4950779;28;20133;-74
2023/09/25 05:45:11;;;;;;;6.15;1.92;;;;;;;10.94;99.05;101965.09;4953055;28;20043;-75
2023/09/25 05:47:37;;;;;;;6.35;1.88;;;;;;;10.91;99.07;101962.75;4951913;28;20545;-75
2023/09/25 05:50:06;;;;;;;6.75;2.28;;;;;;;10.98;99.24;101969.09;4958016;28;20043;-75
2023/09/25 05:52:35;;;;;;;3.60;1.83;;;;;;;11.06;98.77;101971.84;4938451;28;20046;-76
2023/09/25 05:55:02;;;;;;;5.35;2.35;;;;;;;11.03;98.22;101979.88;4958532;28;20070;-75
2023/09/25 05:57:27;;;;;;;4.63;2.00;;;;;;;11.04;98.63;101975.53;4946235;28;20058;-76
2023/09/25 05:59:53;;;;;;;4.03;2.45;;;;;;;11.08;98.54;101977.72;4953441;28;20501;-75
2023/09/25 06:02:18;;;;;;;5.50;1.92;;;;;;;11.07;98.41;101978.66;4933692;28;20117;-74
2023/09/25 06:04:44;;;;;;;7.07;2.13;;;;;;;11.07;98.40;101983.03;4951182;28;20495;-76
2023/09/25 06:07:10;;;;;;;5.03;2.40;;;;;;;11.08;98.30;101984.69;4934610;28;20042;-75
2023/09/25 06:09:35;;;;;;;5.32;2.30;;;;;;;11.20;98.51;101988.81;4946273;28;20077;-76
2023/09/25 06:12:01;;;;;;;6.82;2.22;;;;;;;11.30;98.13;101981.91;4933331;28;20039;-75
2023/09/25 06:14:30;;;;;;;4.72;2.25;;;;;;;11.32;97.79;101983.53;4937818;28;20677;-75
2023/09/25 06:16:57;;;;;;;3.90;2.30;;;;;;;11.30;97.37;101981.91;4935922;28;20062;-75
2023/09/25 06:19:24;;;;;;;4.05;2.05;;;;;;;11.42;96.82;101987.00;4947127;28;20031;-75
2023/09/25 06:21:50;;;;;;;5.80;2.78;;;;;;;11.39;97.20;101982.88;4935556;28;20094;-76
2023/09/25 06:24:16;;;;;;;4.03;2.17;;;;;;;11.43;96.98;101981.69;4936441;28;20043;-77
2023/09/25 06:26:46;;;;;;;5.20;2.08;;;;;;;11.55;96.22;101981.56;4931519;28;20065;-74
2023/09/25 06:29:12;;;;;;;8.38;2.22;;;;;;;11.59;95.95;101972.56;4948650;28;20510;-74
2023/09/25 06:31:38;;;;;;;6.38;2.10;;;;;;;11.98;94.16;101981.25;4956067;28;20121;-75
2023/09/25 06:34:07;;;;;;;4.07;2.33;;;;;;;12.40;91.56;101977.53;4938121;28;20505;-74
2023/09/25 06:36:36;;;;;;;3.58;2.03;;;;;;;12.63;89.95;101970.22;4959184;28;20063;-77
2023/09/25 06:39:06;;;;;;;5.72;2.10;;;;;;;13.01;87.62;101974.44;4939870;28;20721;-76
2023/09/25 06:41:33;;;;;;;7.65;2.20;;;;;;;13.11;86.46;101971.84;4945670;28;20034;-75
2023/09/25 06:43:59;;;;;;;8.23;2.33;;;;;;;13.04;86.91;101973.38;4934142;28;20465;-73
2023/09/25 06:46:24;;;;;;;3.53;1.90;;;;;;;13.04;86.49;101968.97;4954331;28;20074;-75
2023/09/25 06:48:50;;;;;;;4.18;1.92;;;;;;;13.12;86.28;101975.25;4955143;28;20082;-76
2023/09/25 06:51:18;;;;;;;5.07;2.00;;;;;;;13.21;85.38;101967.38;4957402;28;20042;-75
2023/09/25 06:53:44;;;;;;;11.50;3.45;;;;;;;13.52;84.75;101972.31;4934212;28;20031;-75
2023/09/25 06:56:10;;;;;;;9.27;1.98;;;;;;;13.86;82.08;101966.44;4956392;28;20117;-75
2023/09/25 06:58:36;;;;;;;4.70;1.95;;;;;;;13.72;82.74;101977.41;4954285;28;20573;-74
2023/09/25 07:01:02;;;;;;;5.90;2.40;;;;;;;13.84;82.74;101981.41;4936291;29;20227;-75
2023/09/25 07:03:28;;;;;;;3.10;1.70;;;;;;;13.94;81.60;101984.78;4919916;28;20118;-75
2023/09/25 07:05:53;;;;;;;4.35;2.08;;;;;;;14.03;80.73;101977.84;4939625;28;20110;-75
2023/09/25 07:08:19;;;;;;;4.57;1.88;;;;;;;13.93;80.94;101983.13;4936350;28;20098;-75
2023/09/25 07:10:46;;;;;;;7.30;2.40;;;;;;;14.10;80.57;101981.50;4950891;28;20583;-74
2023/09/25 07:13:12;;;;;;;3.45;2.08;;;;;;;14.32;79.16;101987.22;4932110;29;20031;-75
2023/09/25 07:15:39;;;;;;;4.30;1.95;;;;;;;14.90;78.12;101978.81;4933105;28;20566;-74
2023/09/25 07:18:04;;;;;;;3.47;2.13;;;;;;;15.13;74.84;101978.25;4949368;28;20063;-75
2023/09/25 07:20:30;;;;;;;3.13;1.45;;;;;;;14.74;76.14;101978.72;4935270;28;20073;-75
2023/09/25 07:22:55;;;;;;;5.85;1.55;;;;;;;14.92;76.41;101976.84;4951100;28;20035;-77
2023/09/25 07:25:21;;;;;;;10.68;1.45;;;;;;;15.34;73.59;101978.63;4931092;28;20035;-75
2023/09/25 07:27:46;;;;;;;9.93;3.80;;;;;;;16.05;71.92;101973.88;4934537;28;20043;-75
2023/09/25 07:30:12;;;;;;;7.97;1.60;;;;;;;15.62;71.49;101981.00;4946724;28;20047;-75
2023/09/25 07:32:39;;;;;;;2.55;1.70;;;;;;;15.74;71.71;101979.72;4937541;28;20417;-75
2023/09/25 07:35:07;;;;;;;3.63;1.58;;;;;;;15.69;72.61;101992.47;4933153;28;20039;-75
2023/09/25 07:37:33;;;;;;;5.32;1.67;;;;;;;15.86;72.96;101982.88;4935405;28;20509;-77
2023/09/25 07:39:58;;;;;;;5.82;1.75;;;;;;;15.96;71.80;101990.56;4941132;28;20066;-76
2023/09/25 07:42:24;;;;;;;4.00;1.60;;;;;;;16.17;70.28;101986.63;4952213;28;20098;-75
2023/09/25 07:44:49;;;;;;;4.07;1.50;;;;;;;16.49;68.80;101991.03;4934980;28;20050;-75
2023/09/25 07:47:17;;;;;;;4.53;1.40;;;;;;;16.60;67.12;101987.25;4954657;28;20517;-75
2023/09/25 07:49:45;;;;;;;6.50;1.80;;;;;;;16.46;68.05;101989.56;4948429;28;20059;-74
2023/09/25 07:52:15;;;;;;;4.18;1.45;;;;;;;16.62;67.51;101986.09;4948570;28;20067;-75
2023/09/25 07:54:51;;;;;;;6.05;1.70;;;;;;;16.14;69.07;101993.00;4956809;28;20446;-74
2023/09/25 07:57:21;;;;;;;4.32;1.40;;;;;;;16.11;70.47;101993.34;4939940;28;20038;-75
2023/09/25 07:59:47;;;;;;;5.43;2.53;;;;;;;16.09;70.32;101985.66;4923063;28;20047;-75
2023/09/25 08:02:19;;;;;;;3.55;1.80;;;;;;;16.60;68.71;101989.88;4943844;28;20051;-76
2023/09/25 08:04:45;;;;;;;4.10;1.60;;;;;;;16.47;69.12;101990.38;4937445;28;20031;-77
2023/09/25 08:07:11;;;;;;;12.40;2.30;;;;;;;16.59;68.62;101982.97;4958126;28;20537;-75
2023/09/25 08:09:37;;;;;;;4.47;1.75;;;;;;;16.83;67.02;101993.41;4957361;28;20062;-75
2023/09/25 08:12:03;;;;;;;6.68;2.10;;;;;;;16.99;65.52;101986.50;4962475;28;20031;-76
2023/09/25 08:14:29;;;;;;;5.03;2.03;;;;;;;17.09;66.37;101984.50;4939316;29;20051;-75
2023/09/25 08:16:54;;;;;;;5.03;1.20;;;;;;;17.42;65.97;101989.56;4939993;28;20139;-75
2023/09/25 08:19:22;;;;;;;3.47;1.70;;;;;;;17.50;65.87;101981.69;4936700;28;20089;-76
2023/09/25 08:21:49;;;;;;;4.45;1.40;;;;;;;17.42;65.46;101982.53;4937640;28;20063;-75
2023/09/25 08:24:15;;;;;;;6.70;1.90;;;;;;;17.09;66.49;101977.44;4951292;28;20577;-75
2023/09/25 08:26:40;;;;;;;5.50;1.80;;;;;;;17.13;67.17;101983.16;4957627;28;20027;-76
2023/09/25 08:29:06;;;;;;;3.88;1.80;;;;;;;17.23;66.85;101978.53;4953972;28;20576;-75
2023/09/25 08:31:32;;;;;;;5.88;1.80;;;;;;;17.01;67.01;101980.13;4937827;28;20039;-75
2023/09/25 08:33:58;;;;;;;4.20;1.70;;;;;;;17.01;67.92;101971.41;4923919;28;20521;-75
2023/09/25 08:36:23;;;;;;;7.07;1.85;;;;;;;17.25;67.96;101987.06;4946230;28;20410;-75
2023/09/25 08:38:49;;;;;;;3.55;1.73;;;;;;;17.44;66.37;101977.94;4931265;28;20425;-75
2023/09/25 08:41:16;;;;;;;3.42;1.85;;;;;;;17.47;66.93;101974.94;4941166;29;20514;-74
2023/09/25 08:43:44;;;;;;;4.80;1.38;;;;;;;17.77;65.16;101977.72;4941439;28;20395;-75
2023/09/25 08:46:11;;;;;;;8.65;3.05;;;;;;;17.92;65.35;101974.38;4964649;28;20720;-77
2023/09/25 08:48:36;;;;;;;4.05;1.52;;;;;;;18.22;64.14;101970.00;4944271;28;20044;-75
2023/09/25 08:51:02;;;;;;;6.32;1.70;;;;;;;18.23;64.91;101975.09;4962285;28;20113;-77
2023/09/25 08:53:29;;;;;;;3.80;1.75;;;;;;;18.06;62.99;101969.16;4961732;28;20042;-76
2023/09/25 08:55:55;;;;;;;5.07;1.60;;;;;;;18.23;62.88;101966.38;4962418;28;20039;-75
2023/09/25 08:58:22;;;;;;;3.60;1.60;;;;;;;18.22;63.57;101970.81;4950242;28;20045;-75
2023/09/25 09:00:47;;;;;;;4.70;1.60;;;;;;;18.49;63.61;101968.59;4928935;28;20038;-76
2023/09/25 09:03:13;;;;;;;4.13;1.98;;;;;;;18.47;62.75;101962.69;4941747;28;20532;-75
2023/09/25 09:05:38;;;;;;;5.95;1.73;;;;;;;18.66;62.30;101963.97;4933430;28;20047;-76
2023/09/25 09:08:05;;;;;;;4.05;1.88;;;;;;;18.73;61.77;101966.69;4958473;28;20035;-74
2023/09/25 09:10:33;;;;;;;6.05;1.90;;;;;;;18.51;62.31;101960.53;4942465;28;20032;-77
2023/09/25 09:12:59;;;;;;;5.40;1.70;;;;;;;18.39;62.78;101970.69;4957172;28;20050;-76
2023/09/25 09:15:28;;;;;;;3.38;1.50;;;;;;;18.64;62.23;101971.22;4953956;28;20035;-75
2023/09/25 09:17:57;;;;;;;4.57;1.40;;;;;;;18.75;62.75;101968.16;4952967;28;20174;-76
2023/09/25 09:20:36;;;;;;;4.50;1.58;;;;;;;18.65;62.06;101965.78;4957801;28;20050;-76
2023/09/25 09:23:02;;;;;;;6.13;1.52;;;;;;;18.56;61.19;101966.06;4942992;28;20062;-76
2023/09/25 09:25:29;;;;;;;6.55;1.33;;;;;;;18.42;61.46;101967.66;4942935;28;20082;-78
2023/09/25 09:27:58;;;;;;;4.07;1.58;;;;;;;18.44;61.39;101960.44;4955819;28;20478;-77
2023/09/25 09:30:25;;;;;;;2.63;1.38;;;;;;;18.30;60.68;101969.94;4962489;28;20063;-77
2023/09/25 09:32:51;;;;;;;7.35;1.73;;;;;;;18.16;60.97;101961.03;4963772;28;20050;-75
2023/09/25 09:35:25;;;;;;;7.25;1.88;;;;;;;18.12;61.38;101962.41;4954328;28;20057;-77
2023/09/25 09:37:54;;;;;;;5.57;1.63;;;;;;;18.18;60.81;101966.94;4955322;28;20122;-75
2023/09/25 09:40:24;;;;;;;4.15;1.60;;;;;;;18.26;59.74;101956.34;4961969;28;20031;-76
2023/09/25 09:42:53;;;;;;;5.82;1.90;;;;;;;18.34;60.68;101954.63;4934141;28;20042;-76
2023/09/25 09:45:20;;;;;;;9.02;1.80;;;;;;;18.48;60.38;101954.66;4960217;28;20096;-75
2023/09/25 09:47:47;;;;;;;3.55;1.50;;;;;;;18.38;59.82;101956.72;4960591;28;20039;-76
2023/09/25 09:50:17;;;;;;;4.45;1.52;;;;;;;18.51;60.81;101945.59;4959463;28;20038;-75
2023/09/25 09:52:44;;;;;;;4.93;2.00;;;;;;;18.78;61.09;101941.50;4953897;28;20117;-76
2023/09/25 09:55:12;;;;;;;4.38;1.73;;;;;;;18.94;60.14;101945.78;4940288;28;20046;-75
2023/09/25 09:57:38;;;;;;;7.28;2.00;;;;;;;19.10;59.95;101931.63;4955871;28;20036;-75
2023/09/25 10:00:05;;;;;;;8.52;2.20;;;;;;;19.11;58.36;101933.22;4955375;28;20034;-76
2023/09/25 10:02:37;;;;;;;7.05;1.90;;;;;;;19.16;58.12;101928.25;4953081;28;20073;-75
2023/09/25 10:05:03;;;;;;;5.68;1.88;;;;;;;19.06;59.36;101920.66;4941956;28;20761;-75
2023/09/25 10:07:29;;;;;;;3.33;1.63;;;;;;;19.09;59.08;101921.28;4960789;28;20038;-77
2023/09/25 10:10:05;;;;;;;5.38;2.20;;;;;;;19.01;59.90;101916.97;4956933;28;20560;-75
2023/09/25 10:12:37;;;;;;;4.18;1.60;;;;;;;19.04;59.83;101908.69;4952552;28;20405;-75
2023/09/25 10:15:08;;;;;;;5.15;1.80;;;;;;;19.14;58.20;101903.16;4937344;28;20067;-77
2023/09/25 10:17:41;;;;;;;5.75;1.88;;;;;;;19.08;59.00;101903.88;4954019;28;20035;-75
2023/09/25 10:20:26;;;;;;;7.03;1.20;;;;;;;19.10;59.57;101902.72;4960659;28;20727;-77
2023/09/25 10:22:52;;;;;;;6.05;1.95;;;;;;;19.20;59.14;101902.41;4938999;28;20071;-75
2023/09/25 10:25:17;;;;;;;4.13;2.17;;;;;;;19.32;59.18;101902.72;4959367;28;20066;-77
2023/09/25 10:27:44;;;;;;;8.60;1.70;;;;;;;19.35;60.06;101903.16;4941222;28;20038;-75
2023/09/25 10:30:16;;;;;;;3.88;1.55;;;;;;;19.55;58.57;101908.63;4945316;28;20039;-76
2023/09/25 10:32:49;;;;;;;3.85;1.83;;;;;;;19.79;57.65;101914.50;4961780;28;20038;-75
2023/09/25 10:35:36;;;;;;;7.85;2.17;;;;;;;19.69;57.13;101911.34;4960340;28;20650;-75
2023/09/25 10:38:26;;;;;;;3.17;1.50;;;;;;;19.66;58.37;101904.63;4958453;28;20054;-75
2023/09/25 10:40:56;;;;;;;4.32;1.92;;;;;;;19.61;57.17;101905.22;4952200;28;20036;-76
2023/09/25 10:43:23;;;;;;;4.65;1.60;;;;;;;19.63;58.93;101908.47;4950517;28;20490;-75
2023/09/25 10:45:50;;;;;;;5.75;1.70;;;;;;;19.80;58.52;101906.41;4921538;28;20055;-77
2023/09/25 10:48:16;;;;;;;3.17;1.50;;;;;;;19.84;57.51;101904.22;4925808;29;20039;-75
2023/09/25 10:50:47;;;;;;;4.00;1.45;;;;;;;20.00;56.25;101911.00;4953368;28;20590;-76
2023/09/25 10:53:14;;;;;;;4.18;1.38;;;;;;;19.85;54.75;101900.56;4937044;28;20066;-76
2023/09/25 10:55:40;;;;;;;4.30;1.50;;;;;;;19.89;56.17;101901.84;4937398;28;20031;-80
2023/09/25 10:58:07;;;;;;;5.03;1.52;;;;;;;19.79;56.03;101903.97;4948161;28;20094;-76
2023/09/25 11:00:36;;;;;;;7.43;1.67;;;;;;;19.72;55.78;101901.31;4938963;28;20040;-75
2023/09/25 11:03:02;;;;;;;2.80;1.70;;;;;;;19.78;56.06;101902.34;4930730;28;20035;-77
2023/09/25 11:05:29;;;;;;;3.25;1.75;;;;;;;19.91;56.21;101907.72;4929633;28;20042;-75
2023/09/25 11:07:55;;;;;;;3.95;1.75;;;;;;;20.15;56.19;101905.63;4925720;28;20095;-75
2023/09/25 11:10:21;;;;;;;2.30;1.30;;;;;;;20.23;55.93;101900.25;4941077;28;20039;-75
2023/09/25 11:12:47;;;;;;;4.90;1.50;;;;;;;20.35;55.31;101901.31;4952565;28;20035;-75
2023/09/25 11:15:21;;;;;;;4.53;1.55;;;;;;;20.45;54.68;101905.41;4960399;28;20043;-75
2023/09/25 11:17:47;;;;;;;3.72;1.58;;;;;;;20.54;56.30;101906.88;4958845;28;20749;-77
2023/09/25 11:20:22;;;;;;;2.38;1.30;;;;;;;20.58;54.10;101914.19;4939208;28;20031;-75
2023/09/25 11:22:49;;;;;;;3.45;1.50;;;;;;;20.43;54.29;101908.25;4955468;28;20083;-77